Time;durP1;ratioP1;P1;durP2;ratioP2;P2;SDS_P1;SDS_P2;PMS_P1;PMS_P2;Temp;Humidity;BMP_temperature;BMP_pressure;BME280_temperature;BME280_humidity;BME280_pressure;Samples;Min_cycle;Max_cycle;Signal;HPM_P1;HPM_P2
2023/01/04 00:00:24;;;;;;;32.90;19.20;;;;;;;6.82;100.00;102127.67;105620;1263;60752;-69
2023/01/04 00:03:13;;;;;;;32.00;19.10;;;;;;;6.75;100.00;102125.32;105488;1259;61567;-69
2023/01/04 00:05:43;;;;;;;29.70;19.30;;;;;;;6.76;100.00;102122.69;105555;1260;74028;-70
2023/01/04 00:08:12;;;;;;;32.80;22.20;;;;;;;6.81;100.00;102131.69;105588;1263;62741;-70
2023/01/04 00:10:41;;;;;;;35.30;20.20;;;;;;;6.84;100.00;102136.24;105620;1263;61934;-70
2023/01/04 00:13:10;;;;;;;32.60;18.20;;;;;;;6.84;100.00;102141.79;105639;1259;74347;-71
2023/01/04 00:15:39;;;;;;;33.60;20.30;;;;;;;6.83;100.00;102147.20;105493;1259;72227;-70
2023/01/04 00:18:08;;;;;;;31.00;19.70;;;;;;;6.84;100.00;102151.32;105575;1272;70742;-72
2023/01/04 00:20:37;;;;;;;33.20;19.40;;;;;;;6.84;100.00;102156.88;105579;1263;73304;-71
2023/01/04 00:23:06;;;;;;;33.90;21.20;;;;;;;6.84;100.00;102157.39;105566;1267;62840;-71
2023/01/04 00:25:38;;;;;;;29.90;19.70;;;;;;;6.80;100.00;102158.71;105629;1267;60589;-70
2023/01/04 00:28:07;;;;;;;33.00;20.60;;;;;;;6.82;100.00;102165.77;105547;1264;72594;-70
2023/01/04 00:30:36;;;;;;;30.00;18.70;;;;;;;6.83;100.00;102166.41;105561;1263;71623;-70
2023/01/04 00:33:05;;;;;;;27.40;18.20;;;;;;;6.85;100.00;102169.64;105486;1267;62383;-72
2023/01/04 00:35:34;;;;;;;31.90;19.00;;;;;;;6.86;100.00;102171.16;105507;1269;73709;-71
2023/01/04 00:38:13;;;;;;;30.50;18.30;;;;;;;6.86;100.00;102173.08;105530;1259;62971;-71
2023/01/04 00:40:42;;;;;;;34.10;18.90;;;;;;;6.87;100.00;102177.02;105560;1267;61296;-70
2023/01/04 00:43:11;;;;;;;24.80;15.70;;;;;;;6.88;100.00;102173.17;105520;1269;74271;-70
2023/01/04 00:45:42;;;;;;;21.60;13.30;;;;;;;6.90;100.00;102180.56;105528;1258;72274;-70
2023/01/04 00:48:11;;;;;;;23.60;13.80;;;;;;;6.91;100.00;102178.27;105551;1263;70800;-72
2023/01/04 00:50:44;;;;;;;24.60;13.60;;;;;;;6.96;100.00;102181.59;105547;1265;74917;-72
2023/01/04 00:53:14;;;;;;;23.70;12.60;;;;;;;7.01;100.00;102182.48;105638;1263;63320;-71
2023/01/04 00:55:44;;;;;;;24.40;13.50;;;;;;;7.04;100.00;102178.89;105498;1273;57436;-71
2023/01/04 00:58:13;;;;;;;19.00;11.50;;;;;;;7.05;100.00;102173.64;105547;1261;62108;-71
2023/01/04 01:00:42;;;;;;;24.90;12.40;;;;;;;7.07;99.94;102176.52;105490;1269;61666;-71
2023/01/04 01:03:11;;;;;;;19.50;11.00;;;;;;;7.10;99.84;102179.03;105663;1263;59570;-71
2023/01/04 01:05:40;;;;;;;21.50;12.60;;;;;;;7.12;98.98;102184.98;105515;1267;63694;-71
2023/01/04 01:08:24;;;;;;;22.30;12.30;;;;;;;7.13;98.38;102183.59;105592;1272;58941;-72
2023/01/04 01:10:54;;;;;;;21.80;12.00;;;;;;;7.13;98.14;102186.34;105599;1267;59674;-70
2023/01/04 01:13:23;;;;;;;23.80;13.80;;;;;;;7.13;97.74;102186.02;105456;1270;62980;-71
2023/01/04 01:15:52;;;;;;;24.40;14.20;;;;;;;7.06;97.80;102187.30;105616;1265;70486;-72
2023/01/04 01:18:21;;;;;;;21.40;12.60;;;;;;;6.98;97.96;102188.46;105609;1257;70410;-73
2023/01/04 01:20:49;;;;;;;19.60;11.90;;;;;;;6.93;98.03;102188.95;105489;1263;74702;-71
2023/01/04 01:23:18;;;;;;;21.30;12.30;;;;;;;6.89;97.71;102189.61;105601;1263;62759;-72
2023/01/04 01:25:47;;;;;;;19.60;11.10;;;;;;;6.87;97.64;102193.48;105503;1272;57472;-71
2023/01/04 01:28:16;;;;;;;20.10;11.80;;;;;;;6.85;97.35;102194.73;105476;1269;62844;-71
2023/01/04 01:30:45;;;;;;;17.30;10.40;;;;;;;6.88;96.47;102193.62;105444;1264;61153;-71
2023/01/04 01:33:14;;;;;;;18.10;9.40;;;;;;;6.91;96.04;102190.59;105523;1272;59409;-69
2023/01/04 01:35:43;;;;;;;14.30;8.60;;;;;;;6.95;96.04;102192.54;105515;1270;63846;-71
2023/01/04 01:38:12;;;;;;;17.20;8.40;;;;;;;7.00;95.36;102188.21;105581;1267;58963;-74
2023/01/04 01:40:42;;;;;;;15.80;8.70;;;;;;;7.02;94.66;102189.36;105563;1273;58281;-73
2023/01/04 01:43:20;;;;;;;14.30;8.90;;;;;;;7.05;93.14;102185.42;105552;1272;62543;-73
2023/01/04 01:45:55;;;;;;;16.00;9.00;;;;;;;7.05;92.76;102181.98;105629;1265;62463;-72
2023/01/04 01:48:28;;;;;;;15.20;8.30;;;;;;;7.07;92.15;102181.36;105777;1273;70779;-71
2023/01/04 01:51:02;;;;;;;15.90;8.90;;;;;;;7.08;91.57;102183.41;105860;1259;62308;-71
2023/01/04 01:53:38;;;;;;;17.90;9.10;;;;;;;7.07;91.46;102184.30;105814;1263;62069;-72
2023/01/04 01:56:09;;;;;;;17.10;8.20;;;;;;;7.04;90.70;102173.34;105687;1264;58304;-74
2023/01/04 01:58:44;;;;;;;17.30;8.10;;;;;;;6.98;90.67;102170.08;105696;1262;61997;-72
2023/01/04 02:01:13;;;;;;;15.30;8.40;;;;;;;6.96;91.02;102172.23;105772;1258;71580;-74
2023/01/04 02:03:42;;;;;;;11.60;7.20;;;;;;;6.93;90.77;102172.52;105655;1272;59344;-71
2023/01/04 02:06:20;;;;;;;13.40;8.50;;;;;;;6.88;90.86;102175.95;105530;1255;73693;-73
2023/01/04 02:08:49;;;;;;;13.10;7.70;;;;;;;6.80;91.09;102180.03;105566;1260;62647;-71
2023/01/04 02:11:18;;;;;;;19.20;8.40;;;;;;;6.76;91.46;102185.02;105530;1267;59101;-73
2023/01/04 02:17:09;;;;;;;14.10;7.10;;;;;;;6.70;91.58;102171.53;105531;1269;61140;-69
2023/01/04 02:20:23;;;;;;;15.40;7.80;;;;;;;6.68;91.65;102167.43;105647;1265;69663;-74
2023/01/04 02:23:26;;;;;;;13.60;6.90;;;;;;;6.65;91.70;102173.97;105619;1273;73169;-74
2023/01/04 02:26:16;;;;;;;13.80;7.60;;;;;;;6.63;91.50;102179.89;105679;1269;63238;-72
2023/01/04 02:29:18;;;;;;;12.40;7.10;;;;;;;6.62;91.57;102182.70;105735;1260;61108;-73
2023/01/04 02:31:52;;;;;;;14.40;7.80;;;;;;;6.60;91.05;102188.13;105705;1262;64495;-73
2023/01/04 02:34:42;;;;;;;12.00;6.60;;;;;;;6.60;90.90;102190.03;105633;1269;62002;-72
2023/01/04 02:37:45;;;;;;;11.10;6.70;;;;;;;6.60;90.23;102196.27;105629;1266;59358;-72
2023/01/04 02:40:48;;;;;;;15.20;7.10;;;;;;;6.59;89.67;102197.00;105340;1273;73811;-68
2023/01/04 02:46:49;;;;;;;11.00;6.30;;;;;;;6.58;88.11;102195.28;105619;1263;58862;-69
2023/01/04 02:52:07;;;;;;;12.30;6.50;;;;;;;6.58;87.52;102193.39;105615;1267;72420;-71
2023/01/04 02:54:37;;;;;;;11.10;5.60;;;;;;;6.55;87.44;102198.48;105753;1272;68095;-69
2023/01/04 02:57:59;;;;;;;8.70;5.20;;;;;;;6.56;87.03;102202.45;105657;1266;63068;-69
2023/01/04 03:07:38;;;;;;;7.60;5.10;;;;;;;6.53;86.02;102210.52;105683;1260;74827;-70
2023/01/04 03:10:29;;;;;;;11.60;6.30;;;;;;;6.51;85.82;102210.06;105573;1273;61702;-69
2023/01/04 03:13:36;;;;;;;9.10;6.20;;;;;;;6.48;85.61;102205.49;105573;1272;59526;-71
2023/01/04 03:16:18;;;;;;;9.20;5.50;;;;;;;6.43;85.59;102204.42;105470;1265;64104;-69
2023/01/04 03:18:56;;;;;;;11.80;6.40;;;;;;;6.34;85.89;102199.16;105492;1259;59098;-68
2023/01/04 03:21:27;;;;;;;10.30;5.80;;;;;;;6.28;86.09;102199.35;105547;1263;60353;-66
2023/01/04 03:35:48;;;;;;;8.40;5.30;;;;;;;6.16;86.77;102208.89;105554;1263;62376;-67
2023/01/04 03:48:30;;;;;;;9.30;6.20;;;;;;;6.13;87.56;102207.44;105559;1272;59312;-67
2023/01/04 03:51:22;;;;;;;10.50;6.00;;;;;;;6.10;87.94;102206.30;105523;1262;62509;-70
2023/01/04 03:54:08;;;;;;;12.20;6.00;;;;;;;6.10;87.87;102206.46;105552;1263;60517;-69
2023/01/04 03:56:41;;;;;;;10.40;6.10;;;;;;;6.11;87.93;102210.41;105455;1269;60314;-69
2023/01/04 03:59:12;;;;;;;11.40;6.00;;;;;;;6.10;87.85;102213.38;105572;1273;62060;-68
2023/01/04 04:01:43;;;;;;;10.60;6.40;;;;;;;6.07;88.08;102215.91;105546;1260;72851;-67
2023/01/04 04:09:47;;;;;;;12.60;5.80;;;;;;;6.03;87.42;102227.27;105571;1269;59154;-68
2023/01/04 04:12:16;;;;;;;7.70;5.70;;;;;;;6.03;86.48;102231.58;105587;1267;59097;-71
2023/01/04 04:14:45;;;;;;;8.90;5.60;;;;;;;6.06;85.31;102234.78;105560;1259;62908;-68
2023/01/04 04:17:14;;;;;;;8.40;5.00;;;;;;;6.07;84.29;102235.61;105495;1266;61161;-67
2023/01/04 04:19:43;;;;;;;8.70;5.10;;;;;;;6.09;83.82;102241.61;105515;1263;59459;-65
2023/01/04 04:22:13;;;;;;;8.70;5.60;;;;;;;6.11;82.58;102246.40;105548;1265;62959;-67
2023/01/04 04:24:42;;;;;;;10.40;5.50;;;;;;;6.10;81.93;102246.77;105509;1260;59120;-67
2023/01/04 04:27:11;;;;;;;8.20;5.10;;;;;;;6.13;81.15;102244.11;105399;1274;61884;-68
2023/01/04 04:29:40;;;;;;;8.70;4.70;;;;;;;6.15;81.18;102248.89;105381;1261;73709;-67
2023/01/04 04:32:09;;;;;;;9.60;5.10;;;;;;;6.11;80.68;102250.38;105301;1268;71621;-67
2023/01/04 04:34:39;;;;;;;8.50;5.30;;;;;;;6.08;79.80;102251.50;105351;1266;70053;-67
2023/01/04 04:37:08;;;;;;;9.00;5.20;;;;;;;6.11;79.93;102254.87;105310;1263;62104;-68
2023/01/04 04:39:37;;;;;;;8.00;5.00;;;;;;;6.08;79.96;102254.44;105553;1263;60807;-71
2023/01/04 04:42:08;;;;;;;9.20;5.30;;;;;;;6.06;79.76;102262.30;105368;1270;61087;-70
2023/01/04 04:44:37;;;;;;;9.20;5.10;;;;;;;6.07;80.66;102259.15;105333;1268;73362;-70
2023/01/04 04:47:06;;;;;;;7.90;4.70;;;;;;;6.13;81.74;102260.69;105420;1264;63580;-70
2023/01/04 04:49:35;;;;;;;10.60;5.00;;;;;;;6.19;81.10;102263.14;105453;1256;70269;-68
2023/01/04 04:52:04;;;;;;;9.00;5.10;;;;;;;6.16;80.31;102263.20;105512;1264;73135;-69
2023/01/04 04:54:33;;;;;;;9.20;5.30;;;;;;;6.19;80.92;102265.91;105470;1266;61773;-67
2023/01/04 04:57:02;;;;;;;9.90;5.60;;;;;;;6.18;80.56;102267.83;105799;1260;58770;-74
2023/01/04 04:59:31;;;;;;;8.10;5.10;;;;;;;6.15;80.38;102268.95;105660;1267;62238;-68
2023/01/04 05:02:00;;;;;;;12.00;6.10;;;;;;;6.11;80.96;102271.48;105568;1265;61168;-68
2023/01/04 05:04:29;;;;;;;9.60;5.60;;;;;;;6.07;81.00;102272.48;105600;1273;69664;-73
2023/01/04 05:06:58;;;;;;;9.40;5.60;;;;;;;6.01;81.29;102276.77;105500;1263;74580;-67
2023/01/04 05:09:27;;;;;;;9.30;5.00;;;;;;;5.99;81.54;102273.92;105633;1267;60405;-67
2023/01/04 05:14:43;;;;;;;9.20;5.60;;;;;;;5.89;81.85;102266.55;105560;1259;73444;-71
2023/01/04 05:17:12;;;;;;;9.50;5.60;;;;;;;5.87;81.92;102263.66;105660;1259;72378;-71
2023/01/04 05:19:41;;;;;;;12.50;6.70;;;;;;;5.85;81.94;102270.99;105674;1272;70464;-71
2023/01/04 05:22:11;;;;;;;9.20;5.80;;;;;;;5.81;82.32;102267.25;105495;1264;75215;-72
2023/01/04 05:24:39;;;;;;;10.90;6.20;;;;;;;5.80;82.00;102269.91;105609;1263;62284;-71
2023/01/04 05:27:08;;;;;;;10.30;6.10;;;;;;;5.77;81.45;102273.08;105593;1272;60658;-70
2023/01/04 05:32:25;;;;;;;9.90;6.10;;;;;;;5.72;80.68;102279.30;105686;1267;61512;-73
2023/01/04 05:34:54;;;;;;;9.60;6.20;;;;;;;5.71;80.47;102276.55;105660;1270;58949;-70
2023/01/04 05:37:24;;;;;;;10.10;6.30;;;;;;;5.71;80.40;102277.23;105649;1264;71821;-69
2023/01/04 05:39:53;;;;;;;10.90;6.80;;;;;;;5.65;80.06;102277.75;105808;1259;61170;-69
2023/01/04 05:42:25;;;;;;;11.00;6.10;;;;;;;5.68;80.27;102279.21;105852;1258;61363;-70
2023/01/04 05:44:57;;;;;;;9.50;6.00;;;;;;;5.69;79.66;102276.43;105787;1259;61933;-68
2023/01/04 05:47:27;;;;;;;10.90;6.80;;;;;;;5.64;79.06;102278.30;105744;1269;72161;-69
2023/01/04 05:49:56;;;;;;;11.00;7.30;;;;;;;5.63;79.53;102283.16;105784;1274;59255;-68
2023/01/04 05:52:26;;;;;;;9.10;6.30;;;;;;;5.66;79.78;102280.14;105575;1259;71818;-67
2023/01/04 05:54:55;;;;;;;11.60;6.60;;;;;;;5.71;79.87;102282.41;105514;1262;59049;-68
2023/01/04 05:57:24;;;;;;;9.90;6.40;;;;;;;5.74;78.80;102285.64;105494;1262;59141;-72
2023/01/04 05:59:53;;;;;;;12.50;7.10;;;;;;;5.76;78.48;102288.34;105575;1264;61998;-69
2023/01/04 06:02:26;;;;;;;10.70;6.70;;;;;;;5.73;78.16;102289.61;105504;1266;61824;-71
2023/01/04 06:04:56;;;;;;;;;;;;;;;5.66;78.11;102288.26;105495;1270;69539;-69
2023/01/04 06:07:28;;;;;;;12.20;7.10;;;;;;;5.58;77.87;102292.79;105497;1265;74203;-71
2023/01/04 06:09:57;;;;;;;11.40;6.80;;;;;;;5.59;78.00;102295.72;105481;1274;61710;-70
2023/01/04 06:12:26;;;;;;;12.20;8.00;;;;;;;5.61;77.70;102297.55;105429;1274;62088;-70
2023/01/04 06:14:55;;;;;;;13.20;7.40;;;;;;;5.56;77.96;102299.24;105341;1268;62855;-67
2023/01/04 06:17:24;;;;;;;12.30;7.00;;;;;;;5.56;77.71;102305.10;105427;1266;61129;-70
2023/01/04 06:19:53;;;;;;;11.50;7.40;;;;;;;5.53;77.50;102306.56;105446;1273;60825;-66
2023/01/04 06:22:23;;;;;;;11.30;7.30;;;;;;;5.53;77.99;102303.80;105480;1274;62608;-69
2023/01/04 06:24:52;;;;;;;13.20;8.10;;;;;;;5.54;78.40;102307.75;105337;1267;59070;-69
2023/01/04 06:27:21;;;;;;;13.80;8.60;;;;;;;5.54;78.28;102307.75;105502;1265;59063;-70
2023/01/04 06:29:50;;;;;;;12.00;7.60;;;;;;;5.55;77.70;102310.33;105578;1258;73302;-70
2023/01/04 06:32:18;;;;;;;12.10;8.00;;;;;;;5.54;77.65;102307.77;105417;1265;72581;-71
2023/01/04 06:34:47;;;;;;;12.40;8.20;;;;;;;5.55;78.07;102308.42;105729;1264;69706;-71
2023/01/04 06:37:16;;;;;;;13.50;8.30;;;;;;;5.52;78.18;102315.25;105880;1274;63012;-72
2023/01/04 06:39:45;;;;;;;15.00;9.50;;;;;;;5.52;78.32;102320.77;105861;1269;58781;-72
2023/01/04 06:45:02;;;;;;;13.20;7.80;;;;;;;5.54;78.38;102323.83;105106;1270;63708;-72
2023/01/04 06:47:31;;;;;;;15.80;9.20;;;;;;;5.57;78.37;102326.17;105806;1264;62898;-71
2023/01/04 06:50:00;;;;;;;12.30;8.10;;;;;;;5.53;77.45;102330.25;105564;1263;59407;-70
2023/01/04 06:52:29;;;;;;;15.10;8.60;;;;;;;5.52;77.35;102332.71;105732;1259;64186;-71
2023/01/04 06:54:58;;;;;;;12.30;7.40;;;;;;;5.55;78.16;102336.94;105715;1260;59019;-71
2023/01/04 06:57:27;;;;;;;12.50;7.00;;;;;;;5.60;78.41;102343.90;105497;1255;59034;-72
2023/01/04 06:59:57;;;;;;;13.00;6.90;;;;;;;5.68;78.09;102346.82;105732;1269;63042;-72
2023/01/04 07:02:25;;;;;;;14.40;7.40;;;;;;;5.69;78.41;102347.98;105729;1273;72057;-73
2023/01/04 07:04:54;;;;;;;14.70;8.80;;;;;;;5.66;78.06;102351.02;105601;1274;68635;-72
2023/01/04 07:07:23;;;;;;;16.90;8.60;;;;;;;5.60;78.06;102358.95;105528;1269;74014;-72
2023/01/04 07:09:52;;;;;;;13.30;7.70;;;;;;;5.53;78.09;102359.81;105816;1259;60488;-74
2023/01/04 07:12:21;;;;;;;16.90;9.40;;;;;;;5.47;78.64;102364.45;105517;1273;60250;-70
2023/01/04 07:14:50;;;;;;;16.40;8.60;;;;;;;5.43;79.26;102367.48;105497;1272;73156;-70
2023/01/04 07:17:19;;;;;;;14.90;8.00;;;;;;;5.44;79.37;102371.80;105499;1259;72723;-71
2023/01/04 07:19:57;;;;;;;13.40;7.40;;;;;;;5.38;79.20;102369.35;105504;1268;59546;-70
2023/01/04 07:22:26;;;;;;;11.40;7.40;;;;;;;5.33;79.08;102370.50;105449;1265;62295;-71
2023/01/04 07:24:55;;;;;;;10.80;6.70;;;;;;;5.29;79.20;102374.58;105466;1269;60791;-71
2023/01/04 07:27:25;;;;;;;11.70;7.10;;;;;;;5.24;79.00;102371.92;105581;1265;58632;-72
2023/01/04 07:29:54;;;;;;;12.70;6.70;;;;;;;5.25;79.52;102374.48;105480;1273;73578;-71
2023/01/04 07:32:23;;;;;;;13.70;7.50;;;;;;;5.29;79.14;102378.39;105607;1273;72241;-70
2023/01/04 07:34:51;;;;;;;9.90;6.40;;;;;;;5.32;79.26;102380.89;105368;1274;69586;-72
2023/01/04 07:37:20;;;;;;;12.70;7.30;;;;;;;5.31;78.87;102380.57;105518;1270;63504;-72
2023/01/04 07:39:49;;;;;;;10.70;7.00;;;;;;;5.26;78.78;102380.86;105308;1267;58507;-73
2023/01/04 07:42:20;;;;;;;12.90;7.50;;;;;;;5.29;78.58;102379.40;105461;1274;59129;-74
2023/01/04 07:44:49;;;;;;;12.20;7.50;;;;;;;5.24;78.04;102378.66;105314;1269;62136;-73
2023/01/04 07:47:18;;;;;;;9.90;7.20;;;;;;;5.22;78.26;102375.43;105558;1264;62185;-71
2023/01/04 07:49:48;;;;;;;10.70;7.00;;;;;;;5.27;77.84;102383.43;105325;1269;59009;-73
2023/01/04 07:52:17;;;;;;;10.60;7.20;;;;;;;5.25;77.96;102388.65;105492;1261;64506;-73
2023/01/04 07:54:46;;;;;;;13.00;7.60;;;;;;;5.13;77.61;102388.07;105391;1272;58230;-72
2023/01/04 15:31:45;;;;;;;40.80;19.90;;;;;;;1.82;77.78;102077.10;102759;1308;598646;-74
2023/01/04 15:34:14;;;;;;;46.00;20.10;;;;;;;1.79;81.28;102073.89;105430;1273;58937;-75
2023/01/04 15:36:43;;;;;;;52.00;23.70;;;;;;;1.78;80.71;102068.05;105354;1274;60596;-72
2023/01/04 15:39:13;;;;;;;53.90;23.10;;;;;;;1.67;80.98;102067.53;105086;1281;71312;-74
2023/01/04 15:44:29;;;;;;;54.40;24.80;;;;;;;1.42;81.54;102074.39;104880;1277;344232;-76
2023/01/04 15:46:58;;;;;;;52.30;22.80;;;;;;;1.31;80.56;102076.59;105676;1263;72850;-72
2023/01/04 15:49:31;;;;;;;47.80;23.00;;;;;;;1.17;79.43;102070.73;105537;1273;59797;-74
2023/01/04 15:52:00;;;;;;;49.30;21.30;;;;;;;1.00;81.86;102067.15;105705;1268;60588;-76
2023/01/04 15:54:29;;;;;;;52.10;24.30;;;;;;;0.95;82.49;102073.91;105603;1276;70108;-76
2023/01/04 15:56:58;;;;;;;58.40;24.10;;;;;;;0.86;84.01;102082.58;105471;1271;69561;-73
2023/01/04 15:59:27;;;;;;;48.80;20.60;;;;;;;0.79;84.22;102080.77;105899;1267;68235;-72
2023/01/04 16:01:56;;;;;;;47.40;19.80;;;;;;;0.69;84.37;102072.11;105674;1273;71099;-72
2023/01/04 16:04:26;;;;;;;50.90;21.30;;;;;;;0.59;85.92;102068.44;105685;1263;61581;-76
2023/01/04 16:06:55;;;;;;;49.00;22.30;;;;;;;0.53;86.55;102066.60;105628;1261;59493;-74
2023/01/04 16:09:24;;;;;;;53.70;21.20;;;;;;;0.46;86.27;102069.92;105556;1275;71902;-76
2023/01/04 16:14:40;;;;;;;66.60;27.00;;;;;;;0.45;93.17;102062.39;105439;1269;70306;-76
2023/01/04 16:17:09;;;;;;;63.70;25.90;;;;;;;0.51;92.58;102063.19;105620;1275;73531;-74
2023/01/04 16:19:37;;;;;;;60.20;24.40;;;;;;;0.58;94.19;102063.98;105594;1266;60582;-73
2023/01/04 16:22:06;;;;;;;58.10;27.20;;;;;;;0.58;92.26;102055.60;105480;1263;59274;-73
2023/01/04 16:24:35;;;;;;;58.50;25.00;;;;;;;0.60;92.64;102053.16;105743;1270;70758;-76
2023/01/04 16:27:24;;;;;;;64.90;27.60;;;;;;;0.63;91.59;102052.80;105602;1275;70734;-75
2023/01/04 16:30:04;;;;;;;58.20;26.50;;;;;;;0.62;91.66;102049.38;105343;1275;67771;-73
2023/01/04 16:32:34;;;;;;;49.00;22.30;;;;;;;0.65;91.67;102048.14;105493;1266;72051;-74
2023/01/04 16:35:04;;;;;;;55.70;24.10;;;;;;;0.66;90.44;102044.02;105632;1262;59025;-74
2023/01/04 16:37:33;;;;;;;52.20;24.90;;;;;;;0.63;90.27;102039.94;105520;1270;60462;-72
2023/01/04 16:40:02;;;;;;;55.40;23.90;;;;;;;0.63;90.52;102042.16;105442;1270;73079;-72
2023/01/04 16:42:37;;;;;;;55.70;25.20;;;;;;;0.58;90.04;102033.81;105351;1266;72035;-72
2023/01/04 16:45:08;;;;;;;62.30;25.50;;;;;;;0.50;89.53;102025.14;105438;1260;68501;-74
2023/01/04 16:47:42;;;;;;;58.70;24.50;;;;;;;0.48;90.50;102019.85;105490;1264;72946;-73
2023/01/04 16:50:12;;;;;;;53.50;22.30;;;;;;;0.46;90.11;102011.81;105498;1275;60301;-73
2023/01/04 16:52:41;;;;;;;55.60;23.20;;;;;;;0.37;87.76;102009.33;105310;1270;59561;-71
2023/01/04 16:55:10;;;;;;;57.40;23.40;;;;;;;0.22;87.78;102008.44;105110;1264;72534;-72
2023/01/04 16:57:39;;;;;;;60.30;27.00;;;;;;;0.07;88.24;102007.71;105249;1266;72229;-70
2023/01/04 17:00:10;;;;;;;60.40;26.70;;;;;;;-0.04;89.77;102007.27;105179;1266;71243;-70
2023/01/04 17:02:39;;;;;;;58.70;27.80;;;;;;;-0.05;91.67;102003.52;105306;1265;74400;-72
2023/01/04 17:05:08;;;;;;;59.80;25.50;;;;;;;-0.10;91.16;102001.85;105338;1265;62399;-69
2023/01/04 17:07:38;;;;;;;54.90;26.00;;;;;;;-0.17;90.57;101997.11;105397;1266;61370;-72
2023/01/04 17:10:08;;;;;;;54.90;25.20;;;;;;;-0.24;90.32;101994.93;105651;1273;71158;-76
2023/01/04 17:12:37;;;;;;;56.00;28.30;;;;;;;-0.31;90.88;101992.58;105511;1266;72167;-72
2023/01/04 17:15:17;;;;;;;51.90;25.80;;;;;;;-0.35;92.06;101988.49;105386;1278;70154;-70
2023/01/04 17:18:11;;;;;;;53.60;26.00;;;;;;;-0.29;93.55;101987.61;105529;1275;69979;-73
2023/01/04 17:20:40;;;;;;;57.50;26.60;;;;;;;-0.34;92.21;101981.31;105461;1266;61247;-74
2023/01/04 17:23:09;;;;;;;49.50;23.70;;;;;;;-0.40;90.97;101975.52;105609;1271;59055;-74
2023/01/04 17:25:38;;;;;;;50.80;24.60;;;;;;;-0.45;91.43;101968.55;105395;1266;70072;-72
2023/01/04 17:28:08;;;;;;;51.70;24.90;;;;;;;-0.50;91.77;101964.98;105524;1276;70612;-70
2023/01/04 17:30:43;;;;;;;50.80;25.90;;;;;;;-0.53;92.57;101959.52;105488;1267;69627;-74
2023/01/04 17:33:12;;;;;;;52.40;25.70;;;;;;;-0.55;92.88;101951.33;105565;1275;72680;-75
2023/01/04 17:35:41;;;;;;;48.60;23.50;;;;;;;-0.57;92.18;101946.02;105754;1263;61031;-71
2023/01/04 17:38:10;;;;;;;51.80;23.60;;;;;;;-0.62;91.78;101945.21;105583;1263;60855;-75
2023/01/04 17:40:39;;;;;;;53.30;23.60;;;;;;;-0.64;92.91;101953.27;106407;1268;71405;-81
2023/01/04 17:43:09;;;;;;;50.40;24.30;;;;;;;-0.66;93.71;101950.54;106627;1277;69966;-81
2023/01/04 17:50:41;;;;;;;57.40;27.30;;;;;;;-0.68;93.97;101948.67;107802;1268;71274;-83
2023/01/04 17:53:09;;;;;;;61.40;27.00;;;;;;;-0.69;94.42;101947.83;105262;1278;63323;-73
2023/01/04 17:55:42;;;;;;;55.70;26.80;;;;;;;-0.72;94.53;101933.48;105185;1278;61291;-71
2023/01/04 17:58:11;;;;;;;54.70;24.70;;;;;;;-0.75;93.99;101930.58;105317;1269;70374;-73
2023/01/04 18:00:43;;;;;;;54.00;27.40;;;;;;;-0.71;95.75;101925.42;105114;1274;71418;-75
2023/01/04 18:03:12;;;;;;;59.40;27.60;;;;;;;-0.70;94.66;101923.88;105205;1277;69906;-72
2023/01/04 18:05:49;;;;;;;56.60;29.10;;;;;;;-0.74;93.64;101922.36;105343;1277;73824;-74
2023/01/04 18:08:21;;;;;;;55.70;27.10;;;;;;;-0.77;94.14;101918.11;105480;1276;62408;-73
2023/01/04 18:10:50;;;;;;;60.20;27.10;;;;;;;-0.75;95.24;101915.88;105354;1275;59157;-73
2023/01/04 18:13:39;;;;;;;57.60;28.70;;;;;;;-0.74;94.77;101915.02;105368;1274;71448;-70
2023/01/04 18:16:32;;;;;;;55.70;27.70;;;;;;;-0.75;94.44;101919.11;105288;1273;71767;-71
2023/01/04 18:19:01;;;;;;;64.10;29.80;;;;;;;-0.73;94.77;101913.29;105344;1277;70111;-74
2023/01/04 18:21:31;;;;;;;55.70;29.10;;;;;;;-0.73;93.88;101911.41;105499;1269;74363;-73
2023/01/04 18:24:04;;;;;;;;;;;;;;;-0.72;94.54;101906.61;105405;1269;61773;-71
2023/01/04 18:26:54;;;;;;;59.30;29.00;;;;;;;-0.70;95.47;101894.11;105439;1266;61472;-72
2023/01/04 18:29:42;;;;;;;70.70;34.50;;;;;;;-0.71;94.21;101891.04;105350;1277;70846;-74
2023/01/04 18:32:12;;;;;;;77.10;33.60;;;;;;;-0.73;93.88;101887.98;105397;1271;70293;-73
2023/01/04 18:34:41;;;;;;;59.70;29.80;;;;;;;-0.72;94.64;101887.10;105347;1269;70514;-74
2023/01/04 18:37:10;;;;;;;61.90;31.70;;;;;;;-0.75;94.68;101881.30;105457;1266;72063;-70
2023/01/04 18:39:40;;;;;;;68.00;31.90;;;;;;;-0.73;95.39;101886.27;105275;1269;59578;-70
2023/01/04 18:42:10;;;;;;;73.30;34.40;;;;;;;-0.72;96.61;101879.05;105201;1273;59669;-69
2023/01/04 18:44:40;;;;;;;71.10;34.50;;;;;;;-0.68;97.57;101865.52;105144;1266;70568;-71
2023/01/04 18:47:18;;;;;;;71.50;34.70;;;;;;;-0.63;97.09;101861.73;105188;1269;69572;-70
2023/01/04 18:49:49;;;;;;;75.20;36.70;;;;;;;-0.59;96.73;101858.77;105226;1274;69586;-72
2023/01/04 18:52:19;;;;;;;72.80;35.10;;;;;;;-0.63;95.09;101852.65;105091;1273;73648;-71
2023/01/04 18:54:48;;;;;;;70.10;36.20;;;;;;;-0.64;95.63;101844.44;105079;1277;60801;-72
2023/01/04 18:57:18;;;;;;;77.70;38.70;;;;;;;-0.61;97.08;101837.40;105162;1274;59566;-69
2023/01/04 18:59:49;;;;;;;68.80;36.00;;;;;;;-0.63;95.33;101838.27;105284;1277;70367;-72
2023/01/04 19:02:19;;;;;;;62.00;31.50;;;;;;;-0.66;94.44;101833.52;105225;1271;71359;-69
2023/01/04 19:04:49;;;;;;;65.40;33.90;;;;;;;-0.69;94.94;101825.84;105099;1271;68986;-72
2023/01/04 19:07:18;;;;;;;61.10;30.70;;;;;;;-0.71;94.07;101820.04;105229;1270;72692;-71
2023/01/04 19:09:48;;;;;;;60.40;33.00;;;;;;;-0.74;93.55;101824.84;105229;1265;58915;-73
2023/01/04 19:12:17;;;;;;;63.30;34.40;;;;;;;-0.76;94.08;101821.95;105633;1266;60360;-74
2023/01/04 19:14:45;;;;;;;62.30;33.10;;;;;;;-0.75;95.11;101819.20;105505;1278;72234;-73
2023/01/04 19:17:15;;;;;;;56.60;27.10;;;;;;;-0.67;97.84;101815.57;105155;1269;72556;-73
2023/01/04 19:19:44;;;;;;;61.40;32.40;;;;;;;-0.60;96.97;101817.73;105497;1277;71463;-73
2023/01/04 19:22:15;;;;;;;63.20;31.90;;;;;;;-0.49;98.40;101808.55;105303;1275;72174;-74
2023/01/04 19:24:44;;;;;;;64.30;31.30;;;;;;;-0.44;97.31;101804.05;105386;1272;60886;-72
2023/01/04 19:27:13;;;;;;;55.50;26.90;;;;;;;-0.41;96.70;101807.97;105227;1270;59182;-73
2023/01/04 19:29:43;;;;;;;56.90;29.50;;;;;;;-0.37;96.46;101808.44;105216;1267;70023;-72
2023/01/04 19:32:12;;;;;;;57.60;29.60;;;;;;;-0.31;94.74;101804.44;105070;1277;72580;-74
2023/01/04 19:34:41;;;;;;;56.50;28.20;;;;;;;-0.21;94.95;101799.89;105019;1278;68232;-73
2023/01/04 19:37:10;;;;;;;53.30;30.10;;;;;;;-0.17;94.35;101798.14;105187;1274;72866;-77
2023/01/04 19:39:39;;;;;;;46.90;23.80;;;;;;;-0.13;93.78;101788.50;104996;1269;60048;-73
2023/01/04 19:42:08;;;;;;;61.50;27.80;;;;;;;-0.05;93.80;101791.50;105097;1277;60048;-77
2023/01/04 19:44:37;;;;;;;53.70;29.80;;;;;;;0.16;95.22;101789.71;105333;1269;72343;-73
2023/01/04 19:47:05;;;;;;;49.40;26.50;;;;;;;0.20;94.31;101784.69;105125;1269;71756;-72
2023/01/04 19:49:35;;;;;;;52.50;26.30;;;;;;;0.23;94.39;101777.29;105413;1266;68306;-73
2023/01/04 19:52:05;;;;;;;41.50;25.50;;;;;;;0.30;94.39;101772.06;105379;1269;72342;-72
2023/01/04 19:54:35;;;;;;;52.80;26.90;;;;;;;0.41;93.50;101762.66;105209;1263;59674;-72
2023/01/04 19:57:04;;;;;;;53.90;26.80;;;;;;;0.74;93.16;101758.94;105011;1266;61269;-71
2023/01/04 19:59:33;;;;;;;42.00;23.10;;;;;;;0.84;92.29;101757.42;105096;1268;73500;-73
2023/01/04 20:02:03;;;;;;;47.40;25.00;;;;;;;0.90;91.42;101755.27;105350;1273;70328;-71
2023/01/04 20:04:33;;;;;;;43.30;22.70;;;;;;;0.92;90.97;101740.47;105327;1269;70155;-70
2023/01/04 20:07:02;;;;;;;47.50;25.10;;;;;;;0.93;91.13;101738.92;105263;1273;73103;-74
2023/01/04 20:09:33;;;;;;;44.20;22.60;;;;;;;1.01;90.97;101729.19;105212;1273;60103;-71